Wheatfield, New York
Current Conditions -  °F | °C
As of 10:53 AM on Wednesday 22 Oct 2014 (Local Time) from KIAG Reporting Station
Overcast Overcast  
Wind Chill: 40°   Ceiling: 1700
Heat Index: 46°   Visibility: 10mi
Dew Point: 38°   Wind: 13mph
Humidity: 73%   Direction: 30°NNE
Pressure: 30.24"   Gusts: NA
Location:  43.1007°N, 78.9485°W
Report Text: KIAG 221453Z 03011KT 10SM FEW015 OVC017 08/03 A3024 RMK AO2 SLP249 T00780033 51013
Loading
Personal Weather Stations






























Interactive Weather Map
Tropical Storm Tracking
New forecast layout! Learn more

10-Day Weather Forecast

Advertisements
Track Severe Weather on mobile